createdAt,value
2018-12-19T00:01:37.032Z,163.07
2018-12-19T00:04:33.801Z,138.10
2018-12-19T00:07:30.865Z,120.70
2018-12-19T00:10:26.479Z,111.70
2018-12-19T00:13:23.956Z,105.47
2018-12-19T00:16:19.985Z,116.40
2018-12-19T00:19:16.497Z,120.07
2018-12-19T00:22:16.658Z,133.83
2018-12-19T00:25:13.440Z,129.00
2018-12-19T00:28:10.424Z,142.17
2018-12-19T00:31:08.029Z,132.77
2018-12-19T00:34:05.083Z,144.37
2018-12-19T00:37:01.275Z,137.70
2018-12-19T00:39:58.355Z,140.37
2018-12-19T00:42:54.688Z,135.43
2018-12-19T00:45:54.502Z,160.30
2018-12-19T00:48:48.074Z,162.13
2018-12-19T00:51:44.680Z,164.13
2018-12-19T00:54:41.087Z,177.03
2018-12-19T00:57:37.330Z,206.60
2018-12-19T01:00:33.947Z,202.37
2018-12-19T01:03:30.085Z,243.80
2018-12-19T01:06:26.723Z,262.70
2018-12-19T01:09:25.271Z,288.13
2018-12-19T01:12:30.467Z,276.37
2018-12-19T01:15:26.296Z,281.37
2018-12-19T01:18:22.477Z,276.07
2018-12-19T01:21:18.946Z,292.43
2018-12-19T01:24:15.409Z,285.80
2018-12-19T01:27:11.744Z,265.23
2018-12-19T01:30:08.188Z,354.53
2018-12-19T01:33:04.354Z,359.83
2018-12-19T01:36:01.504Z,346.20
2018-12-19T01:38:58.179Z,363.97
2018-12-19T01:41:55.009Z,386.73
2018-12-19T01:44:51.580Z,439.27
2018-12-19T01:47:47.765Z,461.37
2018-12-19T01:50:44.349Z,473.53
2018-12-19T01:53:41.562Z,497.93
2018-12-19T01:56:37.816Z,494.00
2018-12-19T01:59:34.049Z,530.37
2018-12-19T02:02:30.757Z,516.30
2018-12-19T02:05:30.415Z,555.03
2018-12-19T02:08:27.112Z,596.77
2018-12-19T02:11:23.711Z,611.90
2018-12-19T02:14:20.029Z,619.70
2018-12-19T02:17:16.058Z,623.10
2018-12-19T02:20:12.289Z,635.60
2018-12-19T02:23:09.454Z,647.13
2018-12-19T02:26:06.309Z,668.60
2018-12-19T02:29:03.368Z,676.87
2018-12-19T02:31:59.917Z,670.40
2018-12-19T02:34:56.688Z,666.57
2018-12-19T02:37:53.144Z,682.97
2018-12-19T02:40:49.741Z,617.77
2018-12-19T02:43:47.039Z,617.87
2018-12-19T02:46:43.921Z,619.30
2018-12-19T02:49:43.771Z,623.90
2018-12-19T02:52:40.675Z,604.70
2018-12-19T02:55:37.991Z,594.80
2018-12-19T02:58:34.939Z,567.47
2018-12-19T03:01:31.189Z,574.13
2018-12-19T03:04:28.109Z,557.50
2018-12-19T03:07:24.603Z,547.53
2018-12-19T03:10:21.377Z,595.43
2018-12-19T03:13:17.175Z,545.63
2018-12-19T03:16:14.067Z,516.40
2018-12-19T03:19:13.561Z,531.60
2018-12-19T03:22:10.686Z,533.43
2018-12-19T03:25:07.338Z,497.67
2018-12-19T03:28:04.475Z,454.10
2018-12-19T03:31:01.146Z,484.43
2018-12-19T03:33:57.893Z,480.37
2018-12-19T03:36:54.228Z,434.50
2018-12-19T03:39:50.525Z,425.80
2018-12-19T03:42:46.974Z,448.40
2018-12-19T03:45:44.192Z,427.40
2018-12-19T03:48:56.633Z,405.73
2018-12-19T03:51:53.591Z,358.43
2018-12-19T03:54:49.562Z,390.50
2018-12-19T03:57:46.628Z,398.80
2018-12-19T04:00:43.337Z,391.90
2018-12-19T04:03:39.798Z,419.93
2018-12-19T04:06:39.023Z,398.50
2018-12-19T04:09:35.663Z,397.83
2018-12-19T04:12:31.668Z,385.07
2018-12-19T04:15:28.491Z,302.70
2018-12-19T04:18:25.085Z,248.07
2018-12-19T04:21:22.057Z,254.17
2018-12-19T04:24:18.803Z,234.43
2018-12-19T04:27:18.335Z,214.03
2018-12-19T04:30:14.117Z,212.40
2018-12-19T04:33:11.101Z,203.10
2018-12-19T04:36:12.361Z,164.23
2018-12-19T04:39:07.151Z,184.63
2018-12-19T04:42:03.594Z,177.00
2018-12-19T04:44:59.717Z,162.83
2018-12-19T04:47:57.077Z,135.73
2018-12-19T04:50:56.048Z,133.35
2018-12-19T04:53:52.802Z,133.07
2018-12-19T04:56:48.632Z,138.83
2018-12-19T04:59:48.271Z,147.67
2018-12-19T05:02:40.949Z,109.63
2018-12-19T05:05:36.581Z,86.93
2018-12-19T05:08:33.052Z,106.07
2018-12-19T05:11:35.105Z,93.35
2018-12-19T05:14:40.624Z,113.40
2018-12-19T05:17:58.989Z,123.90
2018-12-19T05:21:08.236Z,108.10
2018-12-19T05:24:41.707Z,116.97
2018-12-19T05:28:16.343Z,125.75
2018-12-19T05:35:34.389Z,88.27
2018-12-19T05:38:33.748Z,103.92
2018-12-19T05:41:31.746Z,100.90
2018-12-19T05:44:28.809Z,87.75
2018-12-19T05:47:25.439Z,100.22
2018-12-19T05:50:28.773Z,87.17
2018-12-19T05:53:26.414Z,95.47
2018-12-19T05:56:26.859Z,76.00
2018-12-19T05:59:30.300Z,64.03
2018-12-19T06:02:27.042Z,72.45
2018-12-19T06:05:23.754Z,66.82
2018-12-19T06:08:26.552Z,85.95
2018-12-19T06:11:41.790Z,50.28
2018-12-19T06:14:38.209Z,58.75
2018-12-19T06:17:36.678Z,66.30
2018-12-19T06:20:33.039Z,52.20
2018-12-19T06:23:32.368Z,49.00
2018-12-19T06:26:30.393Z,51.58
2018-12-19T06:29:29.493Z,51.15
2018-12-19T06:32:26.903Z,46.63
2018-12-19T06:35:23.100Z,40.28
2018-12-19T06:38:23.338Z,47.43
2018-12-19T06:41:19.640Z,40.00
2018-12-19T06:44:15.889Z,44.38
2018-12-19T06:47:12.126Z,65.80
2018-12-19T06:50:08.157Z,60.55
2018-12-19T06:53:07.094Z,46.80
2018-12-19T06:56:04.440Z,50.55
2018-12-19T06:59:02.764Z,49.67
2018-12-19T07:02:00.671Z,41.05
2018-12-19T07:04:58.549Z,57.25
2018-12-19T07:07:54.922Z,47.33
2018-12-19T07:10:52.353Z,63.65
2018-12-19T07:13:50.645Z,50.28
2018-12-19T07:16:52.073Z,41.68
2018-12-19T07:19:50.769Z,39.38
2018-12-19T07:22:53.497Z,54.15
2018-12-19T07:25:52.597Z,42.80
2018-12-19T07:28:59.986Z,41.80
2018-12-19T07:31:53.189Z,58.13
2018-12-19T07:34:50.724Z,45.73
2018-12-19T07:37:49.803Z,41.90
2018-12-19T07:40:46.205Z,52.38
2018-12-19T07:43:44.643Z,53.90
2018-12-19T07:46:46.027Z,49.67
2018-12-19T07:49:44.700Z,55.73
2018-12-19T07:52:42.392Z,61.60
2018-12-19T07:55:41.075Z,49.95
2018-12-19T07:58:38.069Z,49.70
2018-12-19T08:01:35.662Z,55.92
2018-12-19T08:04:33.228Z,47.55
2018-12-19T08:07:29.566Z,53.75
2018-12-19T08:10:30.199Z,49.58
2018-12-19T08:13:30.536Z,49.35
2018-12-19T08:16:30.347Z,47.13
2018-12-19T08:19:28.635Z,39.63
2018-12-19T08:22:25.248Z,54.42
2018-12-19T08:25:23.398Z,54.38
2018-12-19T08:28:22.051Z,51.65
2018-12-19T08:31:19.484Z,40.15
2018-12-19T08:34:16.508Z,60.05
2018-12-19T08:37:12.974Z,51.00
2018-12-19T08:40:10.693Z,55.52
2018-12-19T08:43:11.927Z,42.33
2018-12-19T08:46:14.557Z,56.63
2018-12-19T08:49:09.861Z,51.45
2018-12-19T08:52:10.015Z,49.38
2018-12-19T08:55:07.175Z,40.75
2018-12-19T08:58:03.629Z,47.08
2018-12-19T09:01:00.339Z,50.63
2018-12-19T09:03:56.640Z,54.13
2018-12-19T09:06:53.477Z,63.68
2018-12-19T09:09:51.151Z,64.35
2018-12-19T09:12:50.282Z,66.28
2018-12-19T09:15:57.955Z,62.95
2018-12-19T09:18:54.570Z,74.87
2018-12-19T09:21:51.163Z,53.38
2018-12-19T09:24:48.657Z,53.08
2018-12-19T09:27:46.966Z,54.95
2018-12-19T09:30:44.970Z,50.33
2018-12-19T09:33:40.616Z,51.88
2018-12-19T09:36:39.614Z,54.63
2018-12-19T09:39:37.375Z,55.23
2018-12-19T09:42:33.913Z,57.45
2018-12-19T09:45:31.456Z,61.35
2018-12-19T09:48:29.003Z,69.65
2018-12-19T09:51:26.641Z,57.40
2018-12-19T09:54:27.172Z,96.15
2018-12-19T09:57:23.615Z,68.28
2018-12-19T10:00:34.510Z,58.15
2018-12-19T10:03:32.330Z,62.30
2018-12-19T10:06:28.736Z,60.95
2018-12-19T10:09:25.029Z,90.10
2018-12-19T10:12:22.148Z,89.40
2018-12-19T10:15:18.144Z,59.93
2018-12-19T10:18:14.690Z,68.72
2018-12-19T10:21:11.034Z,63.55
2018-12-19T10:24:07.031Z,82.72
2018-12-19T10:27:04.431Z,74.05
2018-12-19T10:30:03.492Z,65.03
2018-12-19T10:33:01.232Z,63.68
2018-12-19T10:36:02.745Z,73.97
2018-12-19T10:39:00.017Z,93.12
2018-12-19T10:41:56.122Z,85.50
2018-12-19T10:44:53.879Z,58.98
2018-12-19T10:47:53.874Z,73.47
2018-12-19T10:50:52.361Z,59.90
2018-12-19T10:54:00.493Z,105.15
2018-12-19T10:57:02.465Z,66.70
2018-12-19T11:00:02.750Z,67.55
2018-12-19T11:03:01.903Z,89.17
2018-12-19T11:06:00.665Z,83.90
2018-12-19T11:08:58.379Z,81.20
2018-12-19T11:12:18.296Z,75.30
2018-12-19T11:15:16.874Z,100.95
2018-12-19T11:18:16.328Z,86.12
2018-12-19T11:21:15.174Z,100.55
2018-12-19T11:24:15.209Z,109.30
2018-12-19T11:27:23.479Z,91.50
2018-12-19T11:30:22.071Z,86.95
2018-12-19T11:33:22.070Z,85.00
2018-12-19T11:36:17.792Z,97.85
2018-12-19T11:39:21.341Z,99.85
2018-12-19T11:42:18.925Z,107.83
2018-12-19T11:45:26.702Z,94.15
2018-12-19T11:48:27.774Z,90.85
2018-12-19T11:51:33.945Z,102.17
2018-12-19T11:54:33.859Z,78.30
2018-12-19T11:57:39.437Z,93.52
2018-12-19T12:00:36.796Z,102.60
2018-12-19T12:03:34.186Z,89.05
2018-12-19T12:06:32.638Z,99.00
2018-12-19T12:09:29.205Z,103.72
2018-12-19T12:12:28.251Z,99.58
2018-12-19T12:15:25.299Z,128.53
2018-12-19T12:18:22.942Z,137.70
2018-12-19T12:21:20.233Z,109.55
2018-12-19T12:24:18.697Z,101.78
2018-12-19T12:27:19.140Z,104.63
2018-12-19T12:30:20.097Z,131.10
2018-12-19T12:36:44.875Z,147.35
2018-12-19T12:39:41.398Z,119.30
2018-12-19T12:42:37.225Z,151.47
2018-12-19T12:45:34.987Z,176.10
2018-12-19T12:48:32.017Z,176.20
2018-12-19T12:51:30.536Z,177.40
2018-12-19T12:54:31.334Z,173.50
2018-12-19T12:57:33.209Z,160.95
2018-12-19T13:00:34.017Z,159.48
2018-12-19T13:03:33.960Z,168.65
2018-12-19T13:06:32.110Z,151.07
2018-12-19T13:09:31.613Z,165.20
